Terminal Aerodrome Forecast
Issued by NWS

Home | Current Version | Previous Version | Text Only | Print | Product List | Glossary On
Versions: 1 2 3 4 5 6 7 8 9 10 11 12 13 14 15 16 17 18 19 20 21 22 23 24
401
FTUS43 KDLH 281723
TAFHYR
TAF
KHYR 281723Z 2818/2918 VRB04KT P6SM VCSH BKN012 OVC060
      TEMPO 2820/2824 4SM -RA BR OVC008
     FM290300 VRB03KT 3SM BR VCSH OVC003
     FM291400 27007KT 6SM BR BKN006 OVC018=

USA.gov is the U.S. government's official web portal to all federal, state and local government web resources and services.